PWSweather.com
Personal Weather Stations
Station Observations
IHTIMAN1
Neighbourhood 1, IhtimanBG 2050

Neighbourhood 1IhtimanBG 2050

Lat: 42.436852, Lon: 23.817921

Elevation: 2066

Station Type: Oregon Scientific WMR968

http://ihtiman-meteo.com

High Low Average
Temperature 65.8°F18.8°C 44.2°F6.8°C 53.1°F11.7°C
Dew Point 52.8°F11.6°C 38.7°F3.7°C 44.9°F7.2°C
Winds 12.7 mph 20.4 kmh Calm Calm 4.0 mph WSW6.4 kmh WSW
Wind Gusts 23.0 mph37.0 kmh -- 6.0 mph9.7 kmh
Humidity 98% 43% 77%
Pressure 29.97 in1014.9 mb 29.80 in1009.1 mb -
Precipitation 0.14 in3.6 mm - -
Hour Temp Dew Point Humidity Winds Wind Gusts Pressure Precip Precip Rate Daily Precip Total
12:00 AM 49.1°F9.5°C 48.6°F9.2°C 98% Calm Calm -- 29.82 in1009.8 mb - 0.05 in1.3 mm 0.05 in1.3 mm
12:10 AM 49.1°F9.5°C 48.6°F9.2°C 98% Calm Calm -- 29.82 in1009.8 mb - 0.05 in1.3 mm 0.05 in1.3 mm
12:20 AM 48.9°F9.4°C 48.4°F9.1°C 98% Calm Calm -- 29.82 in1009.8 mb - 0.05 in1.3 mm 0.05 in1.3 mm
12:40 AM 48.7°F9.3°C 48.2°F9.0°C 98% Calm Calm -- 29.82 in1009.8 mb - 0.00 in0.0 mm 0.05 in1.3 mm
12:50 AM 48.7°F9.3°C 48.2°F9.0°C 98% Calm Calm -- 29.82 in1009.8 mb - 0.00 in0.0 mm 0.05 in1.3 mm
01:00 AM 48.6°F9.2°C 48.0°F8.9°C 98% Calm Calm -- 29.82 in1009.8 mb - 0.00 in0.0 mm 0.05 in1.3 mm
01:10 AM 48.7°F9.3°C 48.2°F9.0°C 98% Calm Calm -- 29.82 in1009.8 mb - 0.05 in1.3 mm 0.09 in2.3 mm
01:20 AM 48.7°F9.3°C 48.2°F9.0°C 98% Calm Calm -- 29.82 in1009.8 mb - 0.05 in1.3 mm 0.09 in2.3 mm
01:30 AM 48.7°F9.3°C 48.2°F9.0°C 98% Calm Calm -- 29.82 in1009.8 mb - 0.05 in1.3 mm 0.09 in2.3 mm
01:40 AM 48.7°F9.3°C 48.2°F9.0°C 98% Calm Calm -- 29.82 in1009.8 mb - 0.05 in1.3 mm 0.09 in2.3 mm
01:50 AM 48.7°F9.3°C 48.2°F9.0°C 98% Calm Calm -- 29.82 in1009.8 mb - 0.05 in1.3 mm 0.09 in2.3 mm
02:00 AM 48.7°F9.3°C 48.2°F9.0°C 98% Calm Calm -- 29.82 in1009.8 mb - 0.05 in1.3 mm 0.09 in2.3 mm
02:10 AM 48.6°F9.2°C 48.0°F8.9°C 98% Calm Calm -- 29.82 in1009.8 mb - 0.00 in0.0 mm 0.09 in2.3 mm
02:20 AM 48.6°F9.2°C 48.0°F8.9°C 98% Calm Calm 3.5 mph5.6 kmh 29.80 in1009.1 mb - 0.00 in0.0 mm 0.09 in2.3 mm
02:30 AM 48.4°F9.1°C 47.8°F8.8°C 98% Calm Calm -- 29.80 in1009.1 mb - 0.00 in0.0 mm 0.09 in2.3 mm
02:40 AM 48.0°F8.9°C 47.5°F8.6°C 98% Calm Calm -- 29.80 in1009.1 mb - 0.00 in0.0 mm 0.09 in2.3 mm
02:50 AM 47.8°F8.8°C 47.3°F8.5°C 98% Calm Calm -- 29.80 in1009.1 mb - 0.00 in0.0 mm 0.09 in2.3 mm
03:00 AM 47.7°F8.7°C 47.1°F8.4°C 98% Calm Calm -- 29.80 in1009.1 mb - 0.00 in0.0 mm 0.09 in2.3 mm
03:10 AM 47.7°F8.7°C 47.1°F8.4°C 98% Calm Calm -- 29.80 in1009.1 mb - 0.00 in0.0 mm 0.09 in2.3 mm
03:20 AM 47.5°F8.6°C 46.9°F8.3°C 98% Calm Calm -- 29.80 in1009.1 mb - 0.00 in0.0 mm 0.09 in2.3 mm
03:30 AM 47.5°F8.6°C 46.9°F8.3°C 98% Calm Calm -- 29.80 in1009.1 mb - 0.00 in0.0 mm 0.09 in2.3 mm
03:40 AM 47.3°F8.5°C 46.8°F8.2°C 98% Calm Calm -- 29.80 in1009.1 mb - 0.00 in0.0 mm 0.09 in2.3 mm
03:50 AM 47.1°F8.4°C 46.6°F8.1°C 98% Calm Calm -- 29.80 in1009.1 mb - 0.00 in0.0 mm 0.09 in2.3 mm
04:00 AM 46.8°F8.2°C 46.2°F7.9°C 98% Calm Calm -- 29.80 in1009.1 mb - 0.00 in0.0 mm 0.09 in2.3 mm
04:10 AM 46.5°F8.1°C 45.9°F7.7°C 98% Calm Calm -- 29.80 in1009.1 mb - 0.00 in0.0 mm 0.09 in2.3 mm
04:20 AM 46.4°F8.0°C 45.9°F7.7°C 98% Calm Calm 2.3 mph3.7 kmh 29.80 in1009.1 mb - 0.00 in0.0 mm 0.09 in2.3 mm
04:30 AM 45.9°F7.7°C 45.3°F7.4°C 98% Calm Calm -- 29.80 in1009.1 mb - 0.00 in0.0 mm 0.09 in2.3 mm
04:40 AM 45.7°F7.6°C 45.1°F7.3°C 98% Calm Calm 2.3 mph3.7 kmh 29.80 in1009.1 mb - 0.00 in0.0 mm 0.09 in2.3 mm
04:50 AM 45.9°F7.7°C 45.3°F7.4°C 98% Calm Calm -- 29.80 in1009.1 mb - 0.00 in0.0 mm 0.09 in2.3 mm
05:00 AM 45.7°F7.6°C 45.1°F7.3°C 98% Calm Calm -- 29.80 in1009.1 mb - 0.00 in0.0 mm 0.09 in2.3 mm
05:10 AM 45.3°F7.4°C 44.8°F7.1°C 98% Calm Calm 2.3 mph3.7 kmh 29.80 in1009.1 mb - 0.00 in0.0 mm 0.09 in2.3 mm
05:20 AM 44.8°F7.1°C 44.3°F6.8°C 98% Calm Calm -- 29.80 in1009.1 mb - 0.00 in0.0 mm 0.09 in2.3 mm
05:30 AM 44.2°F6.8°C 43.7°F6.5°C 98% Calm Calm -- 29.82 in1009.8 mb - 0.00 in0.0 mm 0.09 in2.3 mm
05:40 AM 44.2°F6.8°C 43.7°F6.5°C 98% Calm Calm -- 29.82 in1009.8 mb - 0.00 in0.0 mm 0.09 in2.3 mm
05:50 AM 45.0°F7.2°C 44.5°F6.9°C 98% Calm Calm 3.5 mph5.6 kmh 29.82 in1009.8 mb - 0.00 in0.0 mm 0.09 in2.3 mm
06:00 AM 45.6°F7.6°C 45.1°F7.3°C 98% Calm Calm -- 29.82 in1009.8 mb - 0.00 in0.0 mm 0.09 in2.3 mm
06:10 AM 46.0°F7.8°C 45.5°F7.5°C 98% Calm Calm -- 29.82 in1009.8 mb - 0.00 in0.0 mm 0.09 in2.3 mm
06:20 AM 45.9°F7.7°C 45.3°F7.4°C 98% Calm Calm 2.3 mph3.7 kmh 29.82 in1009.8 mb - 0.00 in0.0 mm 0.09 in2.3 mm
06:30 AM 45.6°F7.6°C 45.1°F7.3°C 98% Calm Calm -- 29.82 in1009.8 mb - 0.00 in0.0 mm 0.09 in2.3 mm
06:40 AM 46.0°F7.8°C 45.5°F7.5°C 98% Calm Calm -- 29.82 in1009.8 mb - 0.00 in0.0 mm 0.09 in2.3 mm
06:50 AM 46.8°F8.2°C 46.3°F7.9°C 98% Calm Calm -- 29.82 in1009.8 mb - 0.00 in0.0 mm 0.09 in2.3 mm
07:00 AM 46.9°F8.3°C 46.4°F8.0°C 98% Calm Calm -- 29.82 in1009.8 mb - 0.00 in0.0 mm 0.09 in2.3 mm
07:10 AM 46.6°F8.1°C 46.1°F7.8°C 98% Calm Calm -- 29.82 in1009.8 mb - 0.00 in0.0 mm 0.09 in2.3 mm
07:20 AM 47.2°F8.4°C 46.7°F8.2°C 98% Calm Calm -- 29.82 in1009.8 mb - 0.00 in0.0 mm 0.09 in2.3 mm
07:30 AM 48.6°F9.2°C 48.0°F8.9°C 98% Calm Calm -- 29.82 in1009.8 mb - 0.00 in0.0 mm 0.09 in2.3 mm
07:40 AM 49.6°F9.8°C 49.1°F9.5°C 98% 2.3 mph SSW3.7 kmh SSW 3.5 mph5.6 kmh 29.82 in1009.8 mb - 0.00 in0.0 mm 0.09 in2.3 mm
07:50 AM 49.9°F9.9°C 49.3°F9.6°C 98% 2.3 mph NW3.7 kmh NW 5.8 mph9.3 kmh 29.82 in1009.8 mb - 0.00 in0.0 mm 0.09 in2.3 mm
08:00 AM 49.9°F9.9°C 49.4°F9.7°C 98% 9.2 mph N14.8 kmh N 12.7 mph20.4 kmh 29.86 in1011.2 mb - 0.00 in0.0 mm 0.09 in2.3 mm
08:10 AM 49.3°F9.6°C 48.7°F9.3°C 98% 5.8 mph NW9.3 kmh NW 5.8 mph9.3 kmh 29.86 in1011.2 mb - 0.00 in0.0 mm 0.09 in2.3 mm
08:20 AM 49.5°F9.7°C 48.9°F9.4°C 98% 4.6 mph NNW7.4 kmh NNW 8.1 mph13.0 kmh 29.86 in1011.2 mb - 0.00 in0.0 mm 0.09 in2.3 mm
08:30 AM 50.1°F10.1°C 49.5°F9.7°C 98% 2.3 mph NW3.7 kmh NW 3.5 mph5.6 kmh 29.86 in1011.2 mb - 0.00 in0.0 mm 0.09 in2.3 mm
08:40 AM 50.7°F10.4°C 50.2°F10.1°C 98% Calm Calm -- 29.86 in1011.2 mb - 0.00 in0.0 mm 0.09 in2.3 mm
08:50 AM 50.3°F10.2°C 49.8°F9.9°C 98% 2.3 mph NW3.7 kmh NW 2.3 mph3.7 kmh 29.86 in1011.2 mb - 0.00 in0.0 mm 0.09 in2.3 mm
09:00 AM 50.5°F10.3°C 50.0°F10.0°C 98% 3.5 mph NW5.6 kmh NW 8.1 mph13.0 kmh 29.86 in1011.2 mb - 0.00 in0.0 mm 0.09 in2.3 mm
09:10 AM 50.2°F10.1°C 49.7°F9.8°C 98% 3.5 mph NW5.6 kmh NW 10.4 mph16.7 kmh 29.86 in1011.2 mb - 0.00 in0.0 mm 0.09 in2.3 mm
09:20 AM 50.0°F10.0°C 49.5°F9.7°C 98% 2.3 mph NW3.7 kmh NW 3.5 mph5.6 kmh 29.86 in1011.2 mb - 0.05 in1.3 mm 0.14 in3.6 mm
09:30 AM 50.5°F10.3°C 49.9°F9.9°C 98% Calm Calm 3.5 mph5.6 kmh 29.86 in1011.2 mb - 0.05 in1.3 mm 0.14 in3.6 mm
09:40 AM 51.1°F10.6°C 50.6°F10.3°C 98% 2.3 mph WNW3.7 kmh WNW 5.8 mph9.3 kmh 29.86 in1011.2 mb - 0.05 in1.3 mm 0.14 in3.6 mm
09:50 AM 51.9°F11.1°C 51.3°F10.7°C 98% 4.6 mph NNW7.4 kmh NNW 5.8 mph9.3 kmh 29.86 in1011.2 mb - 0.05 in1.3 mm 0.14 in3.6 mm
10:00 AM 52.4°F11.3°C 51.3°F10.7°C 96% 8.1 mph N13.0 kmh N 11.5 mph18.5 kmh 29.86 in1011.2 mb - 0.05 in1.3 mm 0.14 in3.6 mm
10:10 AM 52.2°F11.2°C 49.9°F9.9°C 92% 8.1 mph NW13.0 kmh NW 9.2 mph14.8 kmh 29.86 in1011.2 mb - 0.05 in1.3 mm 0.14 in3.6 mm
10:20 AM 55.8°F13.2°C 52.6°F11.4°C 89% 8.1 mph N13.0 kmh N 10.4 mph16.7 kmh 29.86 in1011.2 mb - 0.00 in0.0 mm 0.14 in3.6 mm
10:30 AM 58.2°F14.6°C 52.7°F11.5°C 82% 6.9 mph NNW11.1 kmh NNW 10.4 mph16.7 kmh 29.88 in1011.9 mb - 0.00 in0.0 mm 0.14 in3.6 mm
10:40 AM 56.6°F13.7°C 48.1°F8.9°C 73% 8.1 mph NW13.0 kmh NW 12.7 mph20.4 kmh 29.88 in1011.9 mb - 0.00 in0.0 mm 0.14 in3.6 mm
10:50 AM 55.2°F12.9°C 47.4°F8.6°C 75% 10.4 mph NNW16.7 kmh NNW 15.0 mph24.1 kmh 29.86 in1011.2 mb - 0.00 in0.0 mm 0.14 in3.6 mm
11:00 AM 55.7°F13.2°C 47.2°F8.4°C 73% 5.8 mph NNE9.3 kmh NNE 8.1 mph13.0 kmh 29.88 in1011.9 mb - 0.00 in0.0 mm 0.14 in3.6 mm
11:10 AM 54.1°F12.3°C 46.3°F7.9°C 75% 5.8 mph N9.3 kmh N 10.4 mph16.7 kmh 29.88 in1011.9 mb - 0.00 in0.0 mm 0.14 in3.6 mm
11:20 AM 53.3°F11.8°C 46.3°F7.9°C 77% 6.9 mph N11.1 kmh N 11.5 mph18.5 kmh 29.88 in1011.9 mb - 0.00 in0.0 mm 0.14 in3.6 mm
11:30 AM 51.8°F11.0°C 47.1°F8.4°C 84% 6.9 mph NNW11.1 kmh NNW 11.5 mph18.5 kmh 29.88 in1011.9 mb - 0.00 in0.0 mm 0.14 in3.6 mm
11:40 AM 53.7°F12.1°C 50.6°F10.3°C 89% 5.8 mph NNE9.3 kmh NNE 10.4 mph16.7 kmh 29.88 in1011.9 mb - 0.00 in0.0 mm 0.14 in3.6 mm
11:50 AM 56.6°F13.7°C 52.8°F11.6°C 87% 6.9 mph NNW11.1 kmh NNW 9.2 mph14.8 kmh 29.88 in1011.9 mb - 0.00 in0.0 mm 0.14 in3.6 mm
12:00 PM 58.6°F14.8°C 51.4°F10.8°C 77% 9.2 mph NNW14.8 kmh NNW 12.7 mph20.4 kmh 29.88 in1011.9 mb - 0.00 in0.0 mm 0.14 in3.6 mm
12:10 PM 60.7°F15.9°C 50.9°F10.5°C 70% 9.2 mph NNW14.8 kmh NNW 11.5 mph18.5 kmh 29.88 in1011.9 mb - 0.00 in0.0 mm 0.14 in3.6 mm
12:20 PM 58.8°F14.9°C 48.3°F9.1°C 68% 9.2 mph N14.8 kmh N 12.7 mph20.4 kmh 29.88 in1011.9 mb - 0.00 in0.0 mm 0.14 in3.6 mm
12:30 PM 57.6°F14.2°C 46.7°F8.2°C 67% 9.2 mph N14.8 kmh N 12.7 mph20.4 kmh 29.88 in1011.9 mb - 0.00 in0.0 mm 0.14 in3.6 mm
12:40 PM 58.4°F14.7°C 47.5°F8.6°C 67% 10.4 mph N16.7 kmh N 15.0 mph24.1 kmh 29.88 in1011.9 mb - 0.00 in0.0 mm 0.14 in3.6 mm
12:50 PM 58.8°F14.9°C 45.3°F7.4°C 61% 10.4 mph N16.7 kmh N 15.0 mph24.1 kmh 29.88 in1011.9 mb - 0.00 in0.0 mm 0.14 in3.6 mm
01:00 PM 58.5°F14.7°C 45.5°F7.5°C 62% 8.1 mph N13.0 kmh N 10.4 mph16.7 kmh 29.88 in1011.9 mb - 0.00 in0.0 mm 0.14 in3.6 mm
01:10 PM 58.1°F14.5°C 44.7°F7.1°C 61% 9.2 mph N14.8 kmh N 11.5 mph18.5 kmh 29.88 in1011.9 mb - 0.00 in0.0 mm 0.14 in3.6 mm
01:20 PM 59.4°F15.2°C 45.5°F7.5°C 60% 8.1 mph N13.0 kmh N 12.7 mph20.4 kmh 29.88 in1011.9 mb - 0.00 in0.0 mm 0.14 in3.6 mm
01:30 PM 59.0°F15.0°C 44.7°F7.1°C 59% 8.1 mph NNW13.0 kmh NNW 8.1 mph13.0 kmh 29.88 in1011.9 mb - 0.00 in0.0 mm 0.14 in3.6 mm
01:40 PM 57.9°F14.4°C 43.2°F6.2°C 58% 12.7 mph NNW20.4 kmh NNW 15.0 mph24.1 kmh 29.88 in1011.9 mb - 0.00 in0.0 mm 0.14 in3.6 mm
01:50 PM 58.9°F14.9°C 44.6°F7.0°C 59% 9.2 mph N14.8 kmh N 12.7 mph20.4 kmh 29.88 in1011.9 mb - 0.00 in0.0 mm 0.14 in3.6 mm
02:00 PM 63.0°F17.2°C 47.5°F8.6°C 57% 9.2 mph N14.8 kmh N 15.0 mph24.1 kmh 29.88 in1011.9 mb - 0.00 in0.0 mm 0.14 in3.6 mm
02:10 PM 61.4°F16.3°C 44.6°F7.0°C 54% 10.4 mph N16.7 kmh N 17.3 mph27.8 kmh 29.88 in1011.9 mb - 0.00 in0.0 mm 0.14 in3.6 mm
02:20 PM 60.5°F15.8°C 45.2°F7.3°C 57% 10.4 mph NW16.7 kmh NW 15.0 mph24.1 kmh 29.88 in1011.9 mb - 0.00 in0.0 mm 0.14 in3.6 mm
02:30 PM 59.5°F15.3°C 44.2°F6.8°C 57% 9.2 mph N14.8 kmh N 12.7 mph20.4 kmh 29.88 in1011.9 mb - 0.00 in0.0 mm 0.14 in3.6 mm
02:40 PM 63.2°F17.3°C 46.2°F7.9°C 54% 10.4 mph NNW16.7 kmh NNW 23.0 mph37.0 kmh 29.88 in1011.9 mb - 0.00 in0.0 mm 0.14 in3.6 mm
02:50 PM 63.4°F17.4°C 44.5°F6.9°C 50% 10.4 mph NNW16.7 kmh NNW 11.5 mph18.5 kmh 29.88 in1011.9 mb - 0.00 in0.0 mm 0.14 in3.6 mm
03:00 PM 61.8°F16.6°C 41.9°F5.5°C 48% 8.1 mph NNW13.0 kmh NNW 16.1 mph25.9 kmh 29.88 in1011.9 mb - 0.00 in0.0 mm 0.14 in3.6 mm
03:10 PM 64.0°F17.8°C 43.9°F6.6°C 48% 11.5 mph NNW18.5 kmh NNW 17.3 mph27.8 kmh 29.88 in1011.9 mb - 0.00 in0.0 mm 0.14 in3.6 mm
03:20 PM 64.9°F18.3°C 43.6°F6.4°C 46% 8.1 mph N13.0 kmh N 15.0 mph24.1 kmh 29.88 in1011.9 mb - 0.00 in0.0 mm 0.14 in3.6 mm
03:30 PM 64.1°F17.8°C 41.7°F5.4°C 44% 9.2 mph NNW14.8 kmh NNW 12.7 mph20.4 kmh 29.88 in1011.9 mb - 0.00 in0.0 mm 0.14 in3.6 mm
03:40 PM 65.7°F18.7°C 43.1°F6.2°C 44% 8.1 mph N13.0 kmh N 18.4 mph29.6 kmh 29.88 in1011.9 mb - 0.00 in0.0 mm 0.14 in3.6 mm
03:50 PM 65.8°F18.8°C 42.7°F5.9°C 43% 9.2 mph N14.8 kmh N 15.0 mph24.1 kmh 29.88 in1011.9 mb - 0.00 in0.0 mm 0.14 in3.6 mm
04:00 PM 64.7°F18.2°C 41.7°F5.4°C 43% 10.4 mph NNW16.7 kmh NNW 19.6 mph31.5 kmh 29.88 in1011.9 mb - 0.00 in0.0 mm 0.14 in3.6 mm
04:10 PM 64.4°F18.0°C 41.4°F5.2°C 43% 11.5 mph N18.5 kmh N 12.7 mph20.4 kmh 29.88 in1011.9 mb - 0.00 in0.0 mm 0.14 in3.6 mm
04:20 PM 63.3°F17.4°C 40.4°F4.7°C 43% 10.4 mph N16.7 kmh N 15.0 mph24.1 kmh 29.88 in1011.9 mb - 0.00 in0.0 mm 0.14 in3.6 mm
04:30 PM 64.3°F17.9°C 41.4°F5.2°C 43% 8.1 mph N13.0 kmh N 12.7 mph20.4 kmh 29.88 in1011.9 mb - 0.00 in0.0 mm 0.14 in3.6 mm
04:40 PM 63.4°F17.4°C 40.5°F4.7°C 43% 9.2 mph N14.8 kmh N 11.5 mph18.5 kmh 29.88 in1011.9 mb - 0.00 in0.0 mm 0.14 in3.6 mm
04:50 PM 60.6°F15.9°C 39.1°F3.9°C 45% 9.2 mph NNW14.8 kmh NNW 15.0 mph24.1 kmh 29.88 in1011.9 mb - 0.00 in0.0 mm 0.14 in3.6 mm
05:00 PM 59.7°F15.4°C 39.4°F4.1°C 47% 11.5 mph NW18.5 kmh NW 16.1 mph25.9 kmh 29.91 in1012.9 mb - 0.00 in0.0 mm 0.14 in3.6 mm
05:10 PM 59.6°F15.3°C 39.8°F4.3°C 48% 6.9 mph NNW11.1 kmh NNW 8.1 mph13.0 kmh 29.91 in1012.9 mb - 0.00 in0.0 mm 0.14 in3.6 mm
05:20 PM 60.4°F15.8°C 41.2°F5.1°C 49% 5.8 mph N9.3 kmh N 10.4 mph16.7 kmh 29.91 in1012.9 mb - 0.00 in0.0 mm 0.14 in3.6 mm
05:30 PM 59.2°F15.1°C 40.0°F4.4°C 49% 9.2 mph N14.8 kmh N 15.0 mph24.1 kmh 29.91 in1012.9 mb - 0.00 in0.0 mm 0.14 in3.6 mm
05:40 PM 59.9°F15.5°C 40.7°F4.8°C 49% 8.1 mph N13.0 kmh N 10.4 mph16.7 kmh 29.91 in1012.9 mb - 0.00 in0.0 mm 0.14 in3.6 mm
05:50 PM 59.1°F15.1°C 39.9°F4.4°C 49% 6.9 mph NNW11.1 kmh NNW 12.7 mph20.4 kmh 29.91 in1012.9 mb - 0.00 in0.0 mm 0.14 in3.6 mm
06:00 PM 58.5°F14.7°C 39.9°F4.4°C 50% 8.1 mph N13.0 kmh N 10.4 mph16.7 kmh 29.91 in1012.9 mb - 0.00 in0.0 mm 0.14 in3.6 mm
06:10 PM 60.1°F15.6°C 40.8°F4.9°C 49% 8.1 mph NW13.0 kmh NW 10.4 mph16.7 kmh 29.91 in1012.9 mb - 0.00 in0.0 mm 0.14 in3.6 mm
06:20 PM 59.6°F15.3°C 39.9°F4.4°C 48% 9.2 mph NW14.8 kmh NW 15.0 mph24.1 kmh 29.91 in1012.9 mb - 0.00 in0.0 mm 0.14 in3.6 mm
06:30 PM 58.9°F14.9°C 40.3°F4.6°C 50% 8.1 mph NNW13.0 kmh NNW 12.7 mph20.4 kmh 29.91 in1012.9 mb - 0.00 in0.0 mm 0.14 in3.6 mm
06:40 PM 58.0°F14.4°C 38.9°F3.8°C 49% 8.1 mph NNW13.0 kmh NNW 10.4 mph16.7 kmh 29.91 in1012.9 mb - 0.00 in0.0 mm 0.14 in3.6 mm
06:50 PM 57.1°F13.9°C 38.7°F3.7°C 50% 4.6 mph NW7.4 kmh NW 4.6 mph7.4 kmh 29.91 in1012.9 mb - 0.00 in0.0 mm 0.14 in3.6 mm
07:00 PM 56.5°F13.6°C 39.1°F3.9°C 52% 4.6 mph NNW7.4 kmh NNW 5.8 mph9.3 kmh 29.91 in1012.9 mb - 0.00 in0.0 mm 0.14 in3.6 mm
07:10 PM 56.5°F13.6°C 39.5°F4.2°C 53% 4.6 mph NNW7.4 kmh NNW 5.8 mph9.3 kmh 29.91 in1012.9 mb - 0.00 in0.0 mm 0.14 in3.6 mm
07:20 PM 56.3°F13.5°C 39.8°F4.3°C 54% 4.6 mph NW7.4 kmh NW 5.8 mph9.3 kmh 29.91 in1012.9 mb - 0.00 in0.0 mm 0.14 in3.6 mm
07:30 PM 55.6°F13.1°C 39.7°F4.3°C 55% 3.5 mph NW5.6 kmh NW 4.6 mph7.4 kmh 29.91 in1012.9 mb - 0.00 in0.0 mm 0.14 in3.6 mm
07:40 PM 54.5°F12.5°C 39.6°F4.2°C 57% 4.6 mph NW7.4 kmh NW 5.8 mph9.3 kmh 29.91 in1012.9 mb - 0.00 in0.0 mm 0.14 in3.6 mm
07:50 PM 54.0°F12.2°C 39.5°F4.2°C 58% 3.5 mph NW5.6 kmh NW 5.8 mph9.3 kmh 29.91 in1012.9 mb - 0.00 in0.0 mm 0.14 in3.6 mm
08:00 PM 53.6°F12.0°C 39.6°F4.2°C 59% 4.6 mph NNW7.4 kmh NNW 5.8 mph9.3 kmh 29.91 in1012.9 mb - 0.00 in0.0 mm 0.14 in3.6 mm
08:10 PM 53.2°F11.8°C 39.7°F4.3°C 60% 3.5 mph N5.6 kmh N 5.8 mph9.3 kmh 29.91 in1012.9 mb - 0.00 in0.0 mm 0.14 in3.6 mm
08:20 PM 53.2°F11.8°C 39.7°F4.3°C 60% 3.5 mph NNW5.6 kmh NNW 3.5 mph5.6 kmh 29.94 in1013.9 mb - 0.00 in0.0 mm 0.14 in3.6 mm
08:30 PM 53.2°F11.8°C 39.7°F4.3°C 60% 2.3 mph NNW3.7 kmh NNW 3.5 mph5.6 kmh 29.94 in1013.9 mb - 0.00 in0.0 mm 0.14 in3.6 mm
08:40 PM 51.6°F10.9°C 40.6°F4.8°C 66% 2.3 mph NW3.7 kmh NW 3.5 mph5.6 kmh 29.94 in1013.9 mb - 0.00 in0.0 mm 0.14 in3.6 mm
08:50 PM 51.3°F10.7°C 41.1°F5.1°C 68% Calm Calm -- 29.94 in1013.9 mb - 0.00 in0.0 mm 0.14 in3.6 mm
09:00 PM 50.7°F10.4°C 40.9°F4.9°C 69% 1.2 mph N1.9 kmh N 3.5 mph5.6 kmh 29.94 in1013.9 mb - 0.00 in0.0 mm 0.14 in3.6 mm
09:10 PM 50.7°F10.4°C 41.3°F5.2°C 70% 3.5 mph N5.6 kmh N 5.8 mph9.3 kmh 29.94 in1013.9 mb - 0.00 in0.0 mm 0.14 in3.6 mm
09:20 PM 50.7°F10.4°C 41.3°F5.2°C 70% 3.5 mph N5.6 kmh N 3.5 mph5.6 kmh 29.94 in1013.9 mb - 0.00 in0.0 mm 0.14 in3.6 mm
09:30 PM 50.7°F10.4°C 41.3°F5.2°C 70% 2.3 mph NE3.7 kmh NE 3.5 mph5.6 kmh 29.94 in1013.9 mb - 0.00 in0.0 mm 0.14 in3.6 mm
09:40 PM 50.7°F10.4°C 41.3°F5.2°C 70% Calm Calm -- 29.94 in1013.9 mb - 0.00 in0.0 mm 0.14 in3.6 mm
09:50 PM 50.7°F10.4°C 41.3°F5.2°C 70% Calm Calm -- 29.94 in1013.9 mb - 0.00 in0.0 mm 0.14 in3.6 mm
10:00 PM 50.7°F10.4°C 41.3°F5.2°C 70% 2.3 mph N3.7 kmh N 3.5 mph5.6 kmh 29.94 in1013.9 mb - 0.00 in0.0 mm 0.14 in3.6 mm
10:10 PM 50.7°F10.4°C 41.3°F5.2°C 70% 2.3 mph NNW3.7 kmh NNW 3.5 mph5.6 kmh 29.94 in1013.9 mb - 0.00 in0.0 mm 0.14 in3.6 mm
10:20 PM 50.7°F10.4°C 41.3°F5.2°C 70% 3.5 mph N5.6 kmh N 3.5 mph5.6 kmh 29.94 in1013.9 mb - 0.00 in0.0 mm 0.14 in3.6 mm
10:30 PM 51.8°F11.0°C 41.9°F5.5°C 69% 3.5 mph N5.6 kmh N 3.5 mph5.6 kmh 29.94 in1013.9 mb - 0.00 in0.0 mm 0.14 in3.6 mm
10:40 PM 51.8°F11.0°C 41.9°F5.5°C 69% 2.3 mph N3.7 kmh N 3.5 mph5.6 kmh 29.94 in1013.9 mb - 0.00 in0.0 mm 0.14 in3.6 mm
10:50 PM 51.4°F10.8°C 41.6°F5.3°C 69% 2.3 mph N3.7 kmh N 3.5 mph5.6 kmh 29.94 in1013.9 mb - 0.00 in0.0 mm 0.14 in3.6 mm
11:00 PM 50.9°F10.5°C 41.1°F5.1°C 69% 2.3 mph N3.7 kmh N 3.5 mph5.6 kmh 29.97 in1014.9 mb - 0.00 in0.0 mm 0.75 in19.1 mm
11:10 PM 50.9°F10.5°C 41.5°F5.3°C 70% 3.5 mph N5.6 kmh N 5.8 mph9.3 kmh 29.97 in1014.9 mb - 0.00 in0.0 mm 0.75 in19.1 mm
11:20 PM 50.2°F10.1°C 40.8°F4.9°C 70% 3.5 mph N5.6 kmh N 3.5 mph5.6 kmh 29.97 in1014.9 mb - 0.00 in0.0 mm 0.75 in19.1 mm
11:30 PM 50.2°F10.1°C 40.8°F4.9°C 70% 3.5 mph 5.6 kmh 5.8 mph9.3 kmh 29.94 in1013.9 mb - 0.00 in0.0 mm 0.75 in19.1 mm
11:40 PM 50.2°F10.1°C 40.8°F4.9°C 70% 2.3 mph N3.7 kmh N 3.5 mph5.6 kmh 29.94 in1013.9 mb - 0.00 in0.0 mm 0.75 in19.1 mm
11:50 PM 49.8°F9.9°C 41.2°F5.1°C 72% 2.3 mph N3.7 kmh N 5.8 mph9.3 kmh 29.97 in1014.9 mb - 0.00 in0.0 mm 0.75 in19.1 mm